Página principal
METAR-TAF:

METAR-TAF

Aeroportos :

McGrath, Alasca, Estados Unidos

latitude: 62-58N, longitude: 155-37W, altura: 103 m

Observação actual do tempo

O boletim foi feito há 59 minutos, às 14:53 UTC
Vento 5 kt de sudoeste
Temperatura 12°C
Humidade 67%
Pressão 1016 hPa
Visibilidade: 16.1 km
Encobertoa uma altura de 7500 ft

METAR: PAMC 191453Z AUTO 23005KT 10SM OVC075 12/06 A3001 RMK AO2 SLP163 60000 T01170061 51008 TSNO

Hora: 07:52 (15:52 UTC)

Previsão

O boletim foi feito há 4 horas e 1 minutos, às 11:51 UTC
Previsão válida de 19 às 12 UTC a 20 às 12 UTC
Vento 5 kt de sudoeste
Visibilidade: 10 km
Nuvens fragmentadasa uma altura de 10000 ft
aguaceiros nas vizinhanças
A partir de 20 às 0000 UTC
Vento 4 kt com direcção variável
Visibilidade: 10 km
Nuvens fragmentadasa uma altura de 5000 ft
aguaceiros fracos de chuva,

TAF: PAMC 191151Z 1912/2012 22005KT P6SM VCSH BKN100 FM200000 VRB04KT P6SM -SHRA BKN050

Observações e previsões do tempo de mais de 4000 aeroportos (mensagens METAR e TAF).

As estações disponíveis são os pontos amarelos e vermelhos sobre o mapa.

Mova o rato sobre o mapa para ver o nome da estação.

Depois clique no ponto para visualizar as observações e previsões meteorológicas.

Para alterar o mapa : clique nos botões verdes com uma cruz preta para aumentar o zoom; no botão verde com uma pitada de zoom; ou nas setas verdes para mapas adjacentes.


METAR-TAF: